Time;durP1;ratioP1;P1;durP2;ratioP2;P2;SDS_P1;SDS_P2;PMS_P1;PMS_P2;Temp;Humidity;BMP_temperature;BMP_pressure;BME280_temperature;BME280_humidity;BME280_pressure;Samples;Min_cycle;Max_cycle;Signal;HPM_P1;HPM_P2
2021/09/17 00:02:01;;;;;;;2.25;1.73;;;;;;;;;;5068167;28;20873;-58
2021/09/17 00:04:27;;;;;;;2.65;1.98;;;;;;;;;;5063035;28;20033;-58
2021/09/17 00:06:52;;;;;;;3.97;2.47;;;;;;;;;;5068892;28;20040;-58
2021/09/17 00:09:20;;;;;;;3.40;2.65;;;;;;;;;;5063758;28;20119;-58
2021/09/17 00:11:45;;;;;;;3.30;2.33;;;;;;;;;;5068305;28;20033;-58
2021/09/17 00:14:11;;;;;;;3.20;2.38;;;;;;;;;;5059563;28;20387;-58
2021/09/17 00:16:36;;;;;;;2.88;2.00;;;;;;;;;;5069314;28;20028;-58
2021/09/17 00:19:02;;;;;;;3.25;1.90;;;;;;;;;;5068111;28;20089;-58
2021/09/17 00:21:27;;;;;;;10.55;1.70;;;;;;;;;;5069258;28;20052;-58
2021/09/17 00:23:52;;;;;;;5.35;2.25;;;;;;;;;;5069001;28;20594;-58
2021/09/17 00:26:18;;;;;;;1.80;1.33;;;;;;;;;;5069121;28;20040;-58
2021/09/17 00:28:43;;;;;;;2.45;1.73;;;;;;;;;;5068746;28;20512;-58
2021/09/17 00:31:08;;;;;;;2.63;1.75;;;;;;;;;;5069423;28;20039;-59
2021/09/17 00:33:34;;;;;;;2.67;1.65;;;;;;;;;;5069484;28;20115;-60
2021/09/17 00:35:59;;;;;;;2.67;1.92;;;;;;;;;;5069380;28;20029;-60
2021/09/17 00:38:25;;;;;;;3.00;2.00;;;;;;;;;;5068554;28;20029;-58
2021/09/17 00:40:50;;;;;;;3.80;2.13;;;;;;;;;;5069750;28;20028;-60
2021/09/17 00:43:16;;;;;;;3.30;2.50;;;;;;;;;;5067998;28;20477;-60
2021/09/17 00:45:44;;;;;;;2.10;1.60;;;;;;;;;;5071924;28;20037;-60
2021/09/17 00:48:10;;;;;;;2.63;2.05;;;;;;;;;;5069039;28;20040;-60
2021/09/17 00:50:35;;;;;;;2.78;2.15;;;;;;;;;;5071396;28;20039;-60
2021/09/17 00:53:01;;;;;;;6.25;2.08;;;;;;;;;;5071405;28;20043;-60
2021/09/17 00:55:26;;;;;;;6.80;2.42;;;;;;;;;;5066083;28;20090;-60
2021/09/17 00:57:52;;;;;;;3.33;2.35;;;;;;;;;;5071142;28;20035;-60
2021/09/17 01:00:17;;;;;;;2.42;1.75;;;;;;;;;;5071429;28;20120;-60
2021/09/17 01:02:43;;;;;;;2.78;2.05;;;;;;;;;;5069544;28;20066;-60
2021/09/17 01:05:10;;;;;;;3.33;2.13;;;;;;;;;;5066308;28;20047;-61
2021/09/17 01:07:36;;;;;;;10.82;2.22;;;;;;;;;;5067509;28;20057;-60
2021/09/17 01:10:03;;;;;;;3.53;2.20;;;;;;;;;;5067557;28;20485;-60
2021/09/17 01:12:28;;;;;;;2.88;2.15;;;;;;;;;;5070161;28;20024;-60
2021/09/17 01:14:55;;;;;;;2.40;1.80;;;;;;;;;;5069417;28;20029;-60
2021/09/17 01:17:20;;;;;;;2.33;1.50;;;;;;;;;;5061652;28;20043;-58
2021/09/17 01:19:47;;;;;;;2.75;1.80;;;;;;;;;;5063969;28;20366;-58
2021/09/17 01:22:12;;;;;;;3.50;2.08;;;;;;;;;;5071294;28;20111;-58
2021/09/17 01:24:39;;;;;;;3.10;2.50;;;;;;;;;;5069273;28;20121;-58
2021/09/17 01:27:06;;;;;;;2.90;1.70;;;;;;;;;;5069404;28;20032;-58
2021/09/17 01:29:32;;;;;;;2.25;1.73;;;;;;;;;;5067096;28;20756;-58
2021/09/17 01:31:58;;;;;;;11.43;2.25;;;;;;;;;;5066912;28;20457;-59
2021/09/17 01:34:24;;;;;;;2.83;2.17;;;;;;;;;;5068008;28;20032;-59
2021/09/17 01:36:50;;;;;;;2.72;2.00;;;;;;;;;;5066029;28;20111;-60
2021/09/17 01:39:17;;;;;;;2.20;1.55;;;;;;;;;;5067202;28;20052;-61
2021/09/17 01:41:43;;;;;;;3.35;2.20;;;;;;;;;;5066554;28;20454;-59
2021/09/17 01:44:09;;;;;;;2.22;1.70;;;;;;;;;;5066711;28;20072;-59
2021/09/17 01:46:34;;;;;;;2.10;1.60;;;;;;;;;;5069452;28;20642;-59
2021/09/17 01:49:00;;;;;;;2.72;1.83;;;;;;;;;;5061812;28;20574;-58
2021/09/17 01:51:25;;;;;;;3.30;2.30;;;;;;;;;;5068660;28;20032;-59
2021/09/17 01:53:50;;;;;;;3.13;2.22;;;;;;;;;;5068837;28;20369;-58
2021/09/17 01:56:16;;;;;;;2.67;2.15;;;;;;;;;;5070131;28;20021;-59
2021/09/17 01:58:42;;;;;;;3.63;2.00;;;;;;;;;;5070383;28;20033;-60
2021/09/17 02:01:07;;;;;;;3.05;2.15;;;;;;;;;;5069685;28;20090;-57
2021/09/17 02:03:33;;;;;;;2.75;2.10;;;;;;;;;;5069918;28;20442;-60
2021/09/17 02:05:59;;;;;;;2.72;2.15;;;;;;;;;;5068604;28;20417;-58
2021/09/17 02:08:24;;;;;;;3.55;2.65;;;;;;;;;;5069496;28;20361;-57
2021/09/17 02:10:50;;;;;;;2.58;2.10;;;;;;;;;;5068033;28;20041;-57
2021/09/17 02:13:19;;;;;;;3.53;2.10;;;;;;;;;;5069471;28;20036;-58
2021/09/17 02:15:49;;;;;;;2.70;1.90;;;;;;;;;;5065567;28;20082;-58
2021/09/17 02:18:16;;;;;;;2.57;2.00;;;;;;;;;;5067861;28;20621;-60
2021/09/17 02:20:42;;;;;;;2.63;2.00;;;;;;;;;;5069169;28;20051;-58
2021/09/17 02:23:08;;;;;;;3.72;2.67;;;;;;;;;;5069360;28;20107;-58
2021/09/17 02:25:33;;;;;;;3.95;3.03;;;;;;;;;;5070082;28;20032;-57
2021/09/17 02:27:58;;;;;;;2.78;2.25;;;;;;;;;;5023733;28;1192691;-59
2021/09/17 02:30:24;;;;;;;3.90;2.67;;;;;;;;;;5069545;28;20374;-58
2021/09/17 02:32:49;;;;;;;4.63;2.88;;;;;;;;;;5064746;28;20071;-58
2021/09/17 02:35:15;;;;;;;3.03;2.50;;;;;;;;;;5066924;28;20555;-59
2021/09/17 02:37:41;;;;;;;3.67;2.75;;;;;;;;;;5062919;28;20252;-59
2021/09/17 02:40:09;;;;;;;3.45;2.78;;;;;;;;;;5067471;28;20036;-60
2021/09/17 02:42:35;;;;;;;3.20;2.53;;;;;;;;;;5070590;28;20028;-60
2021/09/17 02:45:00;;;;;;;4.05;3.08;;;;;;;;;;5068855;28;20089;-60
2021/09/17 02:47:26;;;;;;;5.13;2.92;;;;;;;;;;5070280;28;20376;-60
2021/09/17 02:49:51;;;;;;;3.47;2.22;;;;;;;;;;5070833;28;20531;-59
2021/09/17 02:52:16;;;;;;;3.50;2.83;;;;;;;;;;5070956;28;20115;-59
2021/09/17 02:54:42;;;;;;;5.13;3.10;;;;;;;;;;5070979;28;20161;-58
2021/09/17 02:57:07;;;;;;;3.47;2.35;;;;;;;;;;5069950;28;20032;-58
2021/09/17 02:59:33;;;;;;;2.33;1.65;;;;;;;;;;5069965;28;20029;-58
2021/09/17 03:01:58;;;;;;;3.03;2.05;;;;;;;;;;5068454;28;20032;-58
2021/09/17 03:04:23;;;;;;;3.38;2.25;;;;;;;;;;5067360;28;20095;-59
2021/09/17 03:06:49;;;;;;;3.80;2.75;;;;;;;;;;5066758;28;20116;-58
2021/09/17 03:09:14;;;;;;;4.00;2.30;;;;;;;;;;5066630;28;20446;-59
2021/09/17 03:11:40;;;;;;;2.47;1.90;;;;;;;;;;5064967;28;20513;-59
2021/09/17 03:14:05;;;;;;;3.30;2.13;;;;;;;;;;5069043;28;20040;-59
2021/09/17 03:16:31;;;;;;;2.50;1.92;;;;;;;;;;5069929;28;20404;-59
2021/09/17 03:18:56;;;;;;;6.28;2.40;;;;;;;;;;5070107;28;20025;-59
2021/09/17 03:21:21;;;;;;;2.22;1.73;;;;;;;;;;5070364;28;20037;-59
2021/09/17 03:23:47;;;;;;;4.38;2.72;;;;;;;;;;5066213;28;20144;-60
2021/09/17 03:26:12;;;;;;;3.05;2.20;;;;;;;;;;5068549;28;20032;-60
2021/09/17 03:28:38;;;;;;;4.05;2.80;;;;;;;;;;5069634;28;20050;-60
2021/09/17 03:31:03;;;;;;;6.07;3.63;;;;;;;;;;5069499;28;20120;-60
2021/09/17 03:33:28;;;;;;;3.33;2.75;;;;;;;;;;5070075;28;20350;-60
2021/09/17 03:35:54;;;;;;;3.75;2.67;;;;;;;;;;5069702;28;20071;-60
2021/09/17 03:38:19;;;;;;;3.40;2.55;;;;;;;;;;5067125;28;20049;-60
2021/09/17 03:40:47;;;;;;;4.07;2.83;;;;;;;;;;5067671;28;20361;-60
2021/09/17 03:43:15;;;;;;;10.95;3.10;;;;;;;;;;5068824;28;20064;-60
2021/09/17 03:45:41;;;;;;;4.32;2.65;;;;;;;;;;5068061;28;20034;-60
2021/09/17 03:48:09;;;;;;;3.75;2.78;;;;;;;;;;5065396;28;20056;-60
2021/09/17 03:50:35;;;;;;;3.55;2.63;;;;;;;;;;5068373;28;20032;-60
2021/09/17 03:53:01;;;;;;;5.63;3.47;;;;;;;;;;5065874;28;20097;-59
2021/09/17 03:55:26;;;;;;;2.70;2.40;;;;;;;;;;5065664;28;20036;-59
2021/09/17 03:57:52;;;;;;;3.20;2.50;;;;;;;;;;5066910;28;20040;-59
2021/09/17 04:00:17;;;;;;;3.85;2.58;;;;;;;;;;5063723;28;20439;-60
2021/09/17 04:02:42;;;;;;;4.82;3.05;;;;;;;;;;5063323;28;20115;-60
2021/09/17 04:05:08;;;;;;;4.00;2.50;;;;;;;;;;5065996;28;20056;-60
2021/09/17 04:07:42;;;;;;;3.55;2.30;;;;;;;;;;5066255;28;20039;-60
2021/09/17 04:10:09;;;;;;;3.45;2.58;;;;;;;;;;5065468;28;20044;-60
2021/09/17 04:12:35;;;;;;;4.68;2.92;;;;;;;;;;5065025;28;20045;-59
2021/09/17 04:15:01;;;;;;;3.67;2.67;;;;;;;;;;5065679;28;20097;-59
2021/09/17 04:17:26;;;;;;;3.67;2.80;;;;;;;;;;5066794;28;20074;-59
2021/09/17 04:19:52;;;;;;;2.67;2.13;;;;;;;;;;5065996;28;20035;-59
2021/09/17 04:22:17;;;;;;;3.55;2.53;;;;;;;;;;5064783;28;20044;-59
2021/09/17 04:24:43;;;;;;;9.32;3.58;;;;;;;;;;5064293;28;20036;-59
2021/09/17 04:27:08;;;;;;;4.82;3.17;;;;;;;;;;5065045;28;20033;-59
2021/09/17 04:29:34;;;;;;;3.38;2.55;;;;;;;;;;5063818;28;20055;-59
2021/09/17 04:31:59;;;;;;;3.83;2.78;;;;;;;;;;5063524;28;20024;-59
2021/09/17 04:34:25;;;;;;;2.80;2.20;;;;;;;;;;5063487;28;20077;-59
2021/09/17 04:36:50;;;;;;;5.30;2.97;;;;;;;;;;5064671;28;21399;-60
2021/09/17 04:39:15;;;;;;;3.20;2.45;;;;;;;;;;5061494;28;20078;-59
2021/09/17 04:41:41;;;;;;;4.18;3.15;;;;;;;;;;5062475;28;20034;-59
2021/09/17 04:44:06;;;;;;;3.72;2.47;;;;;;;;;;5067050;28;20038;-59
2021/09/17 04:46:32;;;;;;;3.53;2.70;;;;;;;;;;5064420;28;20047;-59
2021/09/17 04:48:57;;;;;;;3.47;2.42;;;;;;;;;;5064135;28;20108;-59
2021/09/17 04:51:23;;;;;;;3.80;2.97;;;;;;;;;;5068088;28;20117;-59
2021/09/17 04:53:48;;;;;;;6.00;3.15;;;;;;;;;;5066899;28;20028;-59
2021/09/17 04:56:13;;;;;;;3.13;2.20;;;;;;;;;;5064291;28;20042;-59
2021/09/17 04:58:39;;;;;;;5.07;3.17;;;;;;;;;;5061047;28;20185;-59
2021/09/17 05:01:04;;;;;;;3.95;2.75;;;;;;;;;;5065500;28;20501;-59
2021/09/17 05:03:29;;;;;;;3.22;2.40;;;;;;;;;;5065706;28;20032;-59
2021/09/17 05:05:55;;;;;;;4.10;2.40;;;;;;;;;;5066080;28;20044;-59
2021/09/17 05:08:20;;;;;;;3.83;2.83;;;;;;;;;;5061284;28;20036;-59
2021/09/17 05:10:46;;;;;;;3.97;2.88;;;;;;;;;;5066586;28;20032;-59
2021/09/17 05:13:11;;;;;;;3.60;2.40;;;;;;;;;;5063054;28;20377;-58
2021/09/17 05:15:37;;;;;;;3.50;2.83;;;;;;;;;;5065777;28;20112;-58
2021/09/17 05:18:02;;;;;;;6.18;3.40;;;;;;;;;;5066941;28;20031;-58
2021/09/17 05:20:27;;;;;;;3.63;2.50;;;;;;;;;;5066563;28;20033;-58
2021/09/17 05:22:53;;;;;;;3.35;2.65;;;;;;;;;;5069485;28;20044;-58
2021/09/17 05:25:18;;;;;;;5.38;2.80;;;;;;;;;;5070894;28;20034;-59
2021/09/17 05:27:44;;;;;;;3.30;2.58;;;;;;;;;;5072246;28;20025;-59
2021/09/17 05:30:10;;;;;;;3.70;3.13;;;;;;;;;;5067442;28;20516;-59
2021/09/17 05:32:35;;;;;;;3.10;2.08;;;;;;;;;;5071325;28;20359;-60
2021/09/17 05:35:02;;;;;;;3.30;2.28;;;;;;;;;;5070575;28;20107;-60
2021/09/17 05:37:27;;;;;;;3.05;2.30;;;;;;;;;;5072429;28;20575;-59
2021/09/17 05:39:53;;;;;;;3.60;2.55;;;;;;;;;;5070128;28;20060;-60
2021/09/17 05:42:20;;;;;;;3.00;2.55;;;;;;;;;;5072736;28;20055;-60
2021/09/17 05:44:45;;;;;;;4.25;2.85;;;;;;;;;;5070535;28;20385;-59
2021/09/17 05:47:11;;;;;;;2.63;1.98;;;;;;;;;;5070622;28;20038;-60
2021/09/17 05:49:36;;;;;;;5.70;3.17;;;;;;;;;;5072031;28;20055;-59
2021/09/17 05:52:02;;;;;;;3.65;2.63;;;;;;;;;;5066478;28;20389;-60
2021/09/17 05:54:29;;;;;;;3.50;2.70;;;;;;;;;;5069273;28;20039;-59
2021/09/17 05:56:54;;;;;;;3.28;2.47;;;;;;;;;;5065239;28;20110;-59
2021/09/17 05:59:20;;;;;;;3.55;2.95;;;;;;;;;;5064134;28;20036;-59
2021/09/17 06:01:45;;;;;;;3.00;2.35;;;;;;;;;;5063483;28;20040;-59
2021/09/17 06:04:10;;;;;;;4.10;2.40;;;;;;;;;;5058648;28;20046;-58
2021/09/17 06:06:36;;;;;;;3.03;1.92;;;;;;;;;;5060520;28;20047;-58
2021/09/17 06:09:01;;;;;;;3.08;2.28;;;;;;;;;;5059171;28;20335;-58
2021/09/17 06:11:27;;;;;;;3.58;3.00;;;;;;;;;;5055090;28;20032;-58
2021/09/17 06:13:53;;;;;;;3.33;2.45;;;;;;;;;;5059039;28;20462;-58
2021/09/17 06:16:18;;;;;;;3.67;2.47;;;;;;;;;;5063154;28;20079;-58
2021/09/17 06:18:44;;;;;;;3.50;2.60;;;;;;;;;;5068146;28;20036;-59
2021/09/17 06:21:10;;;;;;;3.67;2.25;;;;;;;;;;5063059;28;20024;-59
2021/09/17 06:23:36;;;;;;;3.42;2.50;;;;;;;;;;5063411;28;20028;-58
2021/09/17 06:26:01;;;;;;;3.92;3.00;;;;;;;;;;5079456;28;20024;-58
2021/09/17 06:28:27;;;;;;;3.83;2.83;;;;;;;;;;5069970;28;20104;-58
2021/09/17 06:30:52;;;;;;;4.85;2.95;;;;;;;;;;5070473;28;20028;-58
2021/09/17 06:33:18;;;;;;;3.38;2.58;;;;;;;;;;5065738;28;20448;-58
2021/09/17 06:35:43;;;;;;;3.58;2.80;;;;;;;;;;5064570;28;20033;-58
2021/09/17 06:38:09;;;;;;;4.53;3.50;;;;;;;;;;5066263;28;20052;-59
2021/09/17 06:40:34;;;;;;;4.20;3.58;;;;;;;;;;5067959;28;20108;-58
2021/09/17 06:43:00;;;;;;;4.88;3.85;;;;;;;;;;5064889;28;20502;-58
2021/09/17 06:45:26;;;;;;;6.25;4.18;;;;;;;;;;5061945;28;20450;-58
2021/09/17 06:47:54;;;;;;;5.70;4.25;;;;;;;;;;5066582;28;20024;-58
2021/09/17 06:50:23;;;;;;;5.30;4.28;;;;;;;;;;5068485;28;20028;-58
2021/09/17 06:52:50;;;;;;;5.70;3.97;;;;;;;;;;5066209;28;20335;-58
2021/09/17 06:55:22;;;;;;;5.38;3.70;;;;;;;;;;5069448;28;20035;-58
2021/09/17 06:57:50;;;;;;;7.53;3.90;;;;;;;;;;5068740;28;20089;-58
2021/09/17 07:00:17;;;;;;;6.07;3.97;;;;;;;;;;5065595;28;20151;-58
2021/09/17 07:02:43;;;;;;;5.22;3.78;;;;;;;;;;5068309;28;20465;-58
2021/09/17 07:05:09;;;;;;;4.70;3.72;;;;;;;;;;5069477;28;20058;-58
2021/09/17 07:07:35;;;;;;;6.05;3.75;;;;;;;;;;5065536;28;20055;-59
2021/09/17 07:10:00;;;;;;;7.30;4.68;;;;;;;;;;5062816;28;20020;-61
2021/09/17 07:12:26;;;;;;;6.80;3.50;;;;;;;;;;5069203;28;20090;-60
2021/09/17 07:14:51;;;;;;;6.10;3.78;;;;;;;;;;5066059;28;20476;-60
2021/09/17 07:17:17;;;;;;;4.32;2.92;;;;;;;;;;5066475;28;20044;-60
2021/09/17 07:19:42;;;;;;;5.18;3.78;;;;;;;;;;5063805;28;20039;-60
2021/09/17 07:22:08;;;;;;;6.82;3.72;;;;;;;;;;5063120;28;20024;-60
2021/09/17 07:24:34;;;;;;;4.80;3.60;;;;;;;;;;5064265;28;20142;-60
2021/09/17 07:26:59;;;;;;;4.93;3.42;;;;;;;;;;5066200;28;20517;-59
2021/09/17 07:29:25;;;;;;;3.60;2.83;;;;;;;;;;5065758;28;20029;-59
2021/09/17 07:31:50;;;;;;;4.00;3.47;;;;;;;;;;5065030;28;20465;-59
2021/09/17 07:34:15;;;;;;;4.95;3.03;;;;;;;;;;5063771;28;20055;-59
2021/09/17 07:36:41;;;;;;;9.40;3.72;;;;;;;;;;5064772;28;20413;-60
2021/09/17 07:39:06;;;;;;;3.53;2.53;;;;;;;;;;5065780;28;20064;-60
2021/09/17 07:41:32;;;;;;;5.13;3.58;;;;;;;;;;5061152;28;20369;-60
2021/09/17 07:43:57;;;;;;;7.00;3.10;;;;;;;;;;5069638;28;20670;-61
2021/09/17 07:46:23;;;;;;;4.95;3.60;;;;;;;;;;5068905;28;20330;-60
2021/09/17 07:48:48;;;;;;;11.20;3.42;;;;;;;;;;5066136;28;20127;-60
2021/09/17 07:51:14;;;;;;;4.03;2.92;;;;;;;;;;5068743;28;20068;-60
2021/09/17 07:53:39;;;;;;;4.32;2.97;;;;;;;;;;5066796;28;20040;-60
2021/09/17 07:56:05;;;;;;;4.97;3.05;;;;;;;;;;5065000;28;20035;-60
2021/09/17 07:58:30;;;;;;;6.40;3.53;;;;;;;;;;5068405;28;20036;-59
2021/09/17 08:00:56;;;;;;;3.97;2.83;;;;;;;;;;5068587;28;20028;-60
2021/09/17 08:03:23;;;;;;;9.13;4.00;;;;;;;;;;5068500;28;20075;-60
2021/09/17 08:05:49;;;;;;;4.43;3.35;;;;;;;;;;5067883;28;20056;-59
2021/09/17 08:08:14;;;;;;;3.97;2.92;;;;;;;;;;5067434;28;20060;-58
2021/09/17 08:10:40;;;;;;;4.63;2.90;;;;;;;;;;5067424;28;21022;-59
2021/09/17 08:13:05;;;;;;;6.30;3.00;;;;;;;;;;5065975;28;20035;-59
2021/09/17 08:15:31;;;;;;;3.40;2.65;;;;;;;;;;5064365;28;20060;-59
2021/09/17 08:17:56;;;;;;;6.97;4.35;;;;;;;;;;5067500;28;20127;-59
2021/09/17 08:20:22;;;;;;;4.05;2.58;;;;;;;;;;5068877;28;20021;-59
2021/09/17 08:22:47;;;;;;;4.28;3.30;;;;;;;;;;5064206;28;20036;-59
2021/09/17 08:25:13;;;;;;;5.88;3.67;;;;;;;;;;5066739;28;20413;-59
2021/09/17 08:27:39;;;;;;;7.22;3.95;;;;;;;;;;5068203;28;20453;-60
2021/09/17 08:30:06;;;;;;;5.25;3.47;;;;;;;;;;5067441;28;20028;-60
2021/09/17 08:32:32;;;;;;;4.40;3.22;;;;;;;;;;5067049;28;20039;-59
2021/09/17 08:34:57;;;;;;;4.47;3.10;;;;;;;;;;5067820;28;20032;-59
2021/09/17 08:37:23;;;;;;;4.40;3.13;;;;;;;;;;5069514;28;20029;-59
2021/09/17 08:39:48;;;;;;;3.80;2.78;;;;;;;;;;5068821;28;20369;-59
2021/09/17 08:42:15;;;;;;;3.88;3.45;;;;;;;;;;5068395;28;20060;-60
2021/09/17 08:44:40;;;;;;;5.07;3.33;;;;;;;;;;5068333;28;20105;-59
2021/09/17 08:47:06;;;;;;;4.38;3.22;;;;;;;;;;5068950;28;20441;-59
2021/09/17 08:49:33;;;;;;;6.45;2.97;;;;;;;;;;5066495;28;20036;-60
2021/09/17 08:51:59;;;;;;;4.75;2.53;;;;;;;;;;5066401;28;20500;-59
2021/09/17 08:54:24;;;;;;;4.13;3.25;;;;;;;;;;5069280;28;20575;-60
2021/09/17 08:56:50;;;;;;;4.65;3.15;;;;;;;;;;5069039;28;20024;-60
2021/09/17 08:59:15;;;;;;;3.58;2.45;;;;;;;;;;5071465;28;20503;-60
2021/09/17 09:01:40;;;;;;;6.22;3.25;;;;;;;;;;5070637;28;20115;-60
2021/09/17 09:04:08;;;;;;;4.60;2.80;;;;;;;;;;5072472;28;20032;-60
2021/09/17 09:06:46;;;;;;;3.53;2.58;;;;;;;;;;5072388;28;20028;-59
2021/09/17 09:09:20;;;;;;;3.85;2.60;;;;;;;;;;5070279;28;20043;-60
2021/09/17 09:11:53;;;;;;;3.72;2.15;;;;;;;;;;5072823;28;20103;-59
2021/09/17 09:14:19;;;;;;;5.43;3.00;;;;;;;;;;5071944;28;20115;-60
2021/09/17 09:16:47;;;;;;;6.75;3.88;;;;;;;;;;5072074;28;20040;-60
2021/09/17 09:19:33;;;;;;;3.20;2.78;;;;;;;;;;5072518;28;20043;-59
2021/09/17 09:22:01;;;;;;;3.70;3.00;;;;;;;;;;5070061;28;20031;-59
2021/09/17 09:24:27;;;;;;;3.65;2.80;;;;;;;;;;5070172;28;20483;-59
2021/09/17 09:27:20;;;;;;;4.75;2.67;;;;;;;;;;5072341;28;20032;-60
2021/09/17 09:29:51;;;;;;;5.18;2.90;;;;;;;;;;5072290;28;20035;-60
2021/09/17 09:32:31;;;;;;;3.05;2.30;;;;;;;;;;5071409;28;20497;-60
2021/09/17 09:34:59;;;;;;;3.85;2.67;;;;;;;;;;5071392;28;20645;-60
2021/09/17 09:37:30;;;;;;;4.63;2.70;;;;;;;;;;5071834;28;20028;-60
2021/09/17 09:40:05;;;;;;;11.75;3.00;;;;;;;;;;5072150;28;20365;-60
2021/09/17 09:42:37;;;;;;;4.13;2.97;;;;;;;;;;5072219;28;20364;-59
2021/09/17 09:45:09;;;;;;;5.75;2.95;;;;;;;;;;5070070;28;20767;-60
2021/09/17 09:47:36;;;;;;;4.47;2.72;;;;;;;;;;5071828;28;20050;-60
2021/09/17 09:50:18;;;;;;;3.83;2.90;;;;;;;;;;5070554;28;20359;-60
2021/09/17 09:52:44;;;;;;;5.40;3.28;;;;;;;;;;5070598;28;20116;-60
2021/09/17 09:55:10;;;;;;;3.25;2.63;;;;;;;;;;5065791;28;20123;-61
2021/09/17 09:57:36;;;;;;;3.45;2.60;;;;;;;;;;5069941;28;20036;-61
2021/09/17 10:00:08;;;;;;;2.92;2.25;;;;;;;;;;5069412;28;20530;-60
2021/09/17 10:02:33;;;;;;;4.18;2.83;;;;;;;;;;5069772;28;20058;-60
2021/09/17 10:04:59;;;;;;;3.75;2.78;;;;;;;;;;5070174;28;20429;-60
2021/09/17 10:07:28;;;;;;;4.25;2.67;;;;;;;;;;5070044;28;20024;-60
2021/09/17 10:09:55;;;;;;;3.65;2.83;;;;;;;;;;5064051;28;20082;-60
2021/09/17 10:12:21;;;;;;;3.78;2.60;;;;;;;;;;5068534;28;20063;-60
2021/09/17 10:14:48;;;;;;;3.50;2.75;;;;;;;;;;5068121;28;20037;-60
2021/09/17 10:17:20;;;;;;;5.18;4.07;;;;;;;;;;5069184;28;20037;-60
2021/09/17 10:19:47;;;;;;;4.40;3.13;;;;;;;;;;5067610;28;21185;-60
2021/09/17 10:22:28;;;;;;;4.55;3.53;;;;;;;;;;5066940;28;20046;-60
2021/09/17 10:25:02;;;;;;;;;;;;;;;;;;5068998;28;20086;-61
2021/09/17 10:27:28;;;;;;;3.97;3.13;;;;;;;;;;5068092;28;19912;-60
2021/09/17 10:29:53;;;;;;;3.03;2.53;;;;;;;;;;5067298;28;20033;-60
2021/09/17 10:32:27;;;;;;;4.10;3.35;;;;;;;;;;5068852;28;20350;-60
2021/09/17 10:35:14;;;;;;;3.80;2.78;;;;;;;;;;5069036;28;20097;-60
2021/09/17 10:38:00;;;;;;;6.70;3.88;;;;;;;;;;5069931;28;20032;-60
2021/09/17 10:40:35;;;;;;;3.17;2.63;;;;;;;;;;5069007;28;20508;-61
2021/09/17 10:43:09;;;;;;;4.35;2.92;;;;;;;;;;5067673;28;20035;-60
2021/09/17 10:45:49;;;;;;;4.10;3.47;;;;;;;;;;5069548;28;20346;-60
2021/09/17 10:48:34;;;;;;;4.05;3.13;;;;;;;;;;5069141;28;20122;-60
2021/09/17 10:51:04;;;;;;;4.40;3.40;;;;;;;;;;5069255;28;20025;-60
2021/09/17 10:53:41;;;;;;;5.22;3.33;;;;;;;;;;5067530;28;20446;-60
2021/09/17 10:56:15;;;;;;;4.28;3.53;;;;;;;;;;5068301;28;20098;-60
2021/09/17 10:58:42;;;;;;;4.63;3.58;;;;;;;;;;5068442;28;20063;-60
2021/09/17 11:01:16;;;;;;;3.80;3.22;;;;;;;;;;5066070;28;20462;-60
2021/09/17 11:03:48;;;;;;;4.85;3.38;;;;;;;;;;5069102;28;20032;-61
2021/09/17 11:06:28;;;;;;;4.28;3.47;;;;;;;;;;5066945;28;20037;-60
2021/09/17 11:08:56;;;;;;;3.60;3.20;;;;;;;;;;5068815;28;20042;-60
2021/09/17 11:11:41;;;;;;;6.93;4.50;;;;;;;;;;5066187;28;20032;-60
2021/09/17 11:14:20;;;;;;;5.25;3.80;;;;;;;;;;5066146;28;20036;-60
2021/09/17 11:16:52;;;;;;;3.33;2.58;;;;;;;;;;5070284;28;20032;-59
2021/09/17 11:19:18;;;;;;;3.13;2.45;;;;;;;;;;5065327;28;20033;-59
2021/09/17 11:21:47;;;;;;;12.38;2.95;;;;;;;;;;5067824;28;20024;-59
2021/09/17 11:24:26;;;;;;;4.22;3.17;;;;;;;;;;5070111;28;20394;-59
2021/09/17 11:26:53;;;;;;;3.45;2.13;;;;;;;;;;5068445;28;20081;-59
2021/09/17 11:29:21;;;;;;;2.63;1.92;;;;;;;;;;5064310;28;20187;-59
2021/09/17 11:31:55;;;;;;;3.75;2.58;;;;;;;;;;5068279;28;20028;-59
2021/09/17 11:34:23;;;;;;;3.13;2.33;;;;;;;;;;5064954;28;20148;-59
2021/09/17 11:37:02;;;;;;;4.55;3.05;;;;;;;;;;5063795;28;20465;-59
2021/09/17 11:39:38;;;;;;;3.27;2.57;;;;;;;;;;5068232;28;20047;-59
2021/09/17 11:42:13;;;;;;;2.90;2.33;;;;;;;;;;5067774;28;20043;-59
2021/09/17 11:44:51;;;;;;;3.22;2.38;;;;;;;;;;5063333;28;20044;-59
2021/09/17 11:47:26;;;;;;;2.55;1.80;;;;;;;;;;5066416;28;20031;-59
2021/09/17 11:49:55;;;;;;;4.60;2.38;;;;;;;;;;5063850;28;20385;-59
2021/09/17 11:52:21;;;;;;;3.45;2.53;;;;;;;;;;5063831;28;20028;-58
2021/09/17 11:55:08;;;;;;;2.97;2.22;;;;;;;;;;5068656;28;20554;-58
2021/09/17 11:57:36;;;;;;;4.15;2.80;;;;;;;;;;5065721;28;20021;-58
2021/09/17 12:00:10;;;;;;;2.55;1.92;;;;;;;;;;5066824;28;20055;-58
2021/09/17 12:02:36;;;;;;;2.80;2.10;;;;;;;;;;5066697;28;20017;-59
2021/09/17 12:05:07;;;;;;;2.90;2.40;;;;;;;;;;5068242;28;20073;-59
2021/09/17 12:07:34;;;;;;;2.97;2.45;;;;;;;;;;5068435;28;20461;-59
2021/09/17 12:10:08;;;;;;;4.55;2.35;;;;;;;;;;5067026;28;20450;-60
2021/09/17 12:12:35;;;;;;;4.70;2.90;;;;;;;;;;5066628;28;20028;-60
2021/09/17 12:15:01;;;;;;;3.60;2.85;;;;;;;;;;5066494;28;20043;-60
2021/09/17 12:17:27;;;;;;;2.90;2.38;;;;;;;;;;5067097;28;20120;-60
2021/09/17 12:20:05;;;;;;;3.28;2.53;;;;;;;;;;5067053;28;20060;-60
2021/09/17 12:22:35;;;;;;;4.72;1.92;;;;;;;;;;5065213;28;20060;-61
2021/09/17 12:25:05;;;;;;;3.90;2.67;;;;;;;;;;5062648;28;20024;-60
2021/09/17 12:27:31;;;;;;;2.58;2.05;;;;;;;;;;5064763;28;20039;-60
2021/09/17 12:30:02;;;;;;;3.22;2.30;;;;;;;;;;5065532;28;20035;-59
2021/09/17 12:32:28;;;;;;;3.33;2.38;;;;;;;;;;5066831;28;20406;-60
2021/09/17 12:35:06;;;;;;;3.00;2.35;;;;;;;;;;5071088;28;20107;-60
2021/09/17 12:37:31;;;;;;;2.80;2.22;;;;;;;;;;5072792;28;20059;-60
2021/09/17 12:40:18;;;;;;;3.97;2.80;;;;;;;;;;5072738;28;20458;-62
2021/09/17 12:42:45;;;;;;;3.00;2.42;;;;;;;;;;5070319;28;20040;-61
2021/09/17 12:45:11;;;;;;;3.25;2.40;;;;;;;;;;5072387;28;20130;-60
2021/09/17 12:47:37;;;;;;;2.63;1.90;;;;;;;;;;5071851;28;20115;-60
2021/09/17 12:50:12;;;;;;;2.67;2.03;;;;;;;;;;5070974;28;20036;-60
2021/09/17 12:52:42;;;;;;;3.72;2.00;;;;;;;;;;5068233;28;20085;-61
2021/09/17 12:55:29;;;;;;;6.93;3.08;;;;;;;;;;5071316;28;20055;-60
2021/09/17 12:57:55;;;;;;;3.00;2.03;;;;;;;;;;5072129;28;20070;-60
2021/09/17 13:00:21;;;;;;;2.83;2.08;;;;;;;;;;5068787;28;20524;-60
2021/09/17 13:02:46;;;;;;;2.97;2.10;;;;;;;;;;5069741;28;20032;-58
2021/09/17 13:05:12;;;;;;;3.20;2.40;;;;;;;;;;5069606;28;20032;-59
2021/09/17 13:07:38;;;;;;;2.95;2.38;;;;;;;;;;5069122;28;20044;-61
2021/09/17 13:10:04;;;;;;;2.70;2.17;;;;;;;;;;5067067;28;20036;-61
2021/09/17 13:12:30;;;;;;;2.65;2.05;;;;;;;;;;5072657;28;20496;-61
2021/09/17 13:14:55;;;;;;;2.35;1.80;;;;;;;;;;5072595;28;20226;-58
2021/09/17 13:17:21;;;;;;;3.95;2.72;;;;;;;;;;5068879;28;20040;-60
2021/09/17 13:19:46;;;;;;;3.17;2.38;;;;;;;;;;5071841;28;20040;-58
2021/09/17 13:22:11;;;;;;;3.45;2.53;;;;;;;;;;5072379;28;20050;-58
2021/09/17 13:24:37;;;;;;;2.92;2.10;;;;;;;;;;5072955;28;20406;-58
2021/09/17 13:27:02;;;;;;;2.72;2.13;;;;;;;;;;5071866;28;20110;-58
2021/09/17 13:29:28;;;;;;;3.10;2.47;;;;;;;;;;5072656;28;20029;-58
2021/09/17 13:31:54;;;;;;;4.57;2.30;;;;;;;;;;5071482;28;20024;-58
2021/09/17 13:34:19;;;;;;;2.65;1.98;;;;;;;;;;5072470;28;20028;-59
2021/09/17 13:36:44;;;;;;;2.70;1.85;;;;;;;;;;5069499;28;20032;-59
2021/09/17 13:39:10;;;;;;;3.10;2.20;;;;;;;;;;5071275;28;20037;-59
2021/09/17 13:41:35;;;;;;;2.47;1.83;;;;;;;;;;5072959;28;20678;-59
2021/09/17 13:44:00;;;;;;;2.88;1.95;;;;;;;;;;5070916;28;20059;-59
2021/09/17 13:46:26;;;;;;;3.10;2.55;;;;;;;;;;5071499;28;20032;-59
2021/09/17 13:48:51;;;;;;;3.38;2.65;;;;;;;;;;5072159;28;20119;-59
2021/09/17 13:51:17;;;;;;;3.88;2.67;;;;;;;;;;5071839;28;20040;-59
2021/09/17 13:53:42;;;;;;;2.03;1.58;;;;;;;;;;5072301;28;20037;-59
2021/09/17 13:56:07;;;;;;;2.78;1.77;;;;;;;;;;5069557;28;20039;-59
2021/09/17 13:58:33;;;;;;;3.58;2.35;;;;;;;;;;5071692;28;20027;-60
2021/09/17 14:00:58;;;;;;;2.80;2.22;;;;;;;;;;5071427;28;20032;-60
2021/09/17 14:03:23;;;;;;;3.15;2.08;;;;;;;;;;5070562;28;20149;-60
2021/09/17 14:05:49;;;;;;;2.90;2.10;;;;;;;;;;5072062;28;20035;-60
2021/09/17 14:08:15;;;;;;;3.55;1.90;;;;;;;;;;5071550;28;20033;-60
2021/09/17 14:10:41;;;;;;;3.10;2.33;;;;;;;;;;5071732;28;20090;-58
2021/09/17 14:13:07;;;;;;;2.70;1.95;;;;;;;;;;5071277;28;20039;-59
2021/09/17 14:15:32;;;;;;;2.40;1.83;;;;;;;;;;5070389;28;20358;-59
2021/09/17 14:17:58;;;;;;;2.65;1.98;;;;;;;;;;5071523;28;20039;-59
2021/09/17 14:20:23;;;;;;;2.92;2.00;;;;;;;;;;5071112;28;20104;-59
2021/09/17 14:22:48;;;;;;;2.42;1.73;;;;;;;;;;5071481;28;20475;-59
2021/09/17 14:25:14;;;;;;;2.80;2.10;;;;;;;;;;5071549;28;20029;-59
2021/09/17 14:27:40;;;;;;;2.90;2.30;;;;;;;;;;5070745;28;20135;-59
2021/09/17 14:30:06;;;;;;;2.33;1.90;;;;;;;;;;5070378;28;20413;-59
2021/09/17 14:32:31;;;;;;;4.75;2.05;;;;;;;;;;5068982;28;20093;-59
2021/09/17 14:34:57;;;;;;;3.22;2.05;;;;;;;;;;5069856;28;20041;-59
2021/09/17 14:37:22;;;;;;;2.63;2.05;;;;;;;;;;5071251;28;20097;-59
2021/09/17 14:39:47;;;;;;;2.45;1.80;;;;;;;;;;5071456;28;20029;-59
2021/09/17 14:42:13;;;;;;;3.22;2.20;;;;;;;;;;5070119;28;20024;-59
2021/09/17 14:44:39;;;;;;;3.08;2.40;;;;;;;;;;5068887;28;20545;-60